createdAt,value
2023-02-03T00:02:56.253Z,10.00
2023-02-03T00:07:59.247Z,14.30
2023-02-03T00:13:02.066Z,10.60
2023-02-03T00:18:06.338Z,13.07
2023-02-03T00:23:10.876Z,9.83
2023-02-03T00:28:13.634Z,16.07
2023-02-03T00:33:17.667Z,14.03
2023-02-03T00:38:20.303Z,12.40
2023-02-03T00:43:23.008Z,13.07
2023-02-03T00:48:29.400Z,9.37
2023-02-03T00:53:32.037Z,10.73
2023-02-03T00:58:34.690Z,10.20
2023-02-03T01:03:39.183Z,10.67
2023-02-03T01:08:42.303Z,9.00
2023-02-03T01:13:45.930Z,8.50
2023-02-03T01:18:50.804Z,12.07
2023-02-03T01:23:54.268Z,10.60
2023-02-03T01:28:59.327Z,11.47
2023-02-03T01:34:03.828Z,7.50
2023-02-03T01:39:07.506Z,8.10
2023-02-03T01:44:40.296Z,7.40
2023-02-03T01:49:49.510Z,9.57
2023-02-03T01:54:54.939Z,11.60
2023-02-03T01:59:59.889Z,11.37
2023-02-03T02:05:08.272Z,11.40
2023-02-03T02:10:12.076Z,10.30
2023-02-03T02:15:14.988Z,8.77
2023-02-03T02:20:36.569Z,17.43
2023-02-03T02:25:57.661Z,11.17
2023-02-03T02:31:25.003Z,9.83
2023-02-03T02:36:36.142Z,9.53
2023-02-03T02:41:43.733Z,8.67
2023-02-03T02:46:49.534Z,5.20
2023-02-03T02:51:54.755Z,7.47
2023-02-03T02:57:01.431Z,5.93
2023-02-03T03:02:04.335Z,5.30
2023-02-03T03:07:11.404Z,7.27
2023-02-03T03:12:20.296Z,6.90
2023-02-03T03:17:26.932Z,5.63
2023-02-03T03:22:35.316Z,7.70
2023-02-03T03:27:42.941Z,4.43
2023-02-03T03:32:46.091Z,5.97
2023-02-03T03:37:56.936Z,7.17
2023-02-03T03:43:03.491Z,3.73
2023-02-03T03:48:10.655Z,5.13
2023-02-03T03:53:17.099Z,7.20
2023-02-03T03:58:23.931Z,5.07
2023-02-03T04:03:31.909Z,4.40
2023-02-03T04:08:35.944Z,5.03
2023-02-03T04:13:38.614Z,7.73
2023-02-03T04:18:41.243Z,8.73
2023-02-03T04:23:45.215Z,6.10
2023-02-03T04:28:47.873Z,6.20
2023-02-03T04:33:50.531Z,4.60
2023-02-03T04:38:54.526Z,6.23
2023-02-03T04:43:57.174Z,5.03
2023-02-03T04:48:59.935Z,6.77
2023-02-03T04:54:04.029Z,7.90
2023-02-03T04:59:06.677Z,6.00
2023-02-03T05:04:09.373Z,7.33
2023-02-03T05:09:13.530Z,7.90
2023-02-03T05:14:16.200Z,6.83
2023-02-03T05:19:18.895Z,10.50
2023-02-03T05:24:22.920Z,5.97
2023-02-03T05:29:25.652Z,8.00
2023-02-03T05:34:28.293Z,9.60
2023-02-03T05:39:32.248Z,10.50
2023-02-03T05:44:34.953Z,7.80
2023-02-03T05:49:37.595Z,8.07
2023-02-03T05:54:41.569Z,8.50
2023-02-03T05:59:44.249Z,9.90
2023-02-03T06:04:46.893Z,9.07
2023-02-03T06:09:50.887Z,9.57
2023-02-03T06:14:53.557Z,10.33
2023-02-03T06:19:56.204Z,10.73
2023-02-03T06:25:00.588Z,8.50
2023-02-03T06:30:03.325Z,9.40
2023-02-03T06:35:06.297Z,6.87
2023-02-03T06:40:11.764Z,7.53
2023-02-03T06:45:15.139Z,7.13
2023-02-03T06:50:18.044Z,9.87
2023-02-03T06:55:22.029Z,10.60
2023-02-03T07:00:25.243Z,8.07
2023-02-03T07:05:28.727Z,7.73
2023-02-03T07:10:32.716Z,7.00
2023-02-03T07:15:35.494Z,8.00
2023-02-03T07:20:38.204Z,7.83
2023-02-03T07:25:42.236Z,7.40
2023-02-03T07:30:44.941Z,5.90
2023-02-03T07:35:52.977Z,5.87
2023-02-03T07:40:57.347Z,5.10
2023-02-03T07:46:01.706Z,5.57
2023-02-03T07:51:04.787Z,3.90
2023-02-03T07:56:08.794Z,4.97
2023-02-03T08:01:13.262Z,5.30
2023-02-03T08:06:15.992Z,5.93
2023-02-03T08:11:20.029Z,6.93
2023-02-03T08:16:24.499Z,7.07
2023-02-03T08:21:27.217Z,7.20
2023-02-03T08:26:31.329Z,4.30
2023-02-03T08:31:34.511Z,6.83
2023-02-03T08:36:39.882Z,4.47
2023-02-03T08:41:43.907Z,5.40
2023-02-03T08:46:46.658Z,3.93
2023-02-03T08:51:50.149Z,4.67
2023-02-03T08:56:54.220Z,4.53
2023-02-03T09:01:59.752Z,6.33
2023-02-03T09:07:03.480Z,4.40
2023-02-03T09:12:08.574Z,6.83
2023-02-03T09:17:11.325Z,5.97
2023-02-03T09:22:14.523Z,7.20
2023-02-03T09:27:18.769Z,4.67
2023-02-03T09:32:21.442Z,5.00
2023-02-03T09:37:24.057Z,3.93
2023-02-03T09:42:56.479Z,7.63
2023-02-03T09:48:05.312Z,5.60
2023-02-03T09:53:15.219Z,5.57
2023-02-03T09:58:23.136Z,6.20
2023-02-03T10:03:33.240Z,8.67
2023-02-03T10:08:49.315Z,5.53
2023-02-03T10:14:06.204Z,6.97
2023-02-03T10:19:13.032Z,5.27
2023-02-03T10:24:22.758Z,4.57
2023-02-03T10:29:32.864Z,6.13
2023-02-03T10:34:36.726Z,6.60
2023-02-03T10:39:44.464Z,9.87
2023-02-03T10:44:54.070Z,7.20
2023-02-03T10:49:58.895Z,8.40
2023-02-03T10:55:06.827Z,6.67
2023-02-03T11:00:24.171Z,7.17
2023-02-03T11:05:27.223Z,4.83
2023-02-03T11:10:35.608Z,8.13
2023-02-03T11:15:44.223Z,7.80
2023-02-03T11:20:46.943Z,5.77
2023-02-03T11:25:49.963Z,7.37
2023-02-03T11:30:59.004Z,5.80
2023-02-03T11:36:05.409Z,6.87
2023-02-03T11:41:17.856Z,5.20
2023-02-03T11:46:21.930Z,3.37
2023-02-03T11:51:32.082Z,5.50
2023-02-03T11:56:55.078Z,3.97
2023-02-03T12:02:34.414Z,6.67
2023-02-03T12:08:09.475Z,2.47
2023-02-03T12:13:36.902Z,3.47
2023-02-03T12:18:53.814Z,3.10
2023-02-03T12:24:25.052Z,2.37
2023-02-03T12:29:40.488Z,1.77
2023-02-03T12:34:58.245Z,2.60
2023-02-03T12:40:19.259Z,3.10
2023-02-03T12:45:33.585Z,2.00
2023-02-03T12:51:24.459Z,4.63
2023-02-03T13:08:08.705Z,4.30
2023-02-03T13:13:22.084Z,4.37
2023-02-03T13:18:48.479Z,2.77
2023-02-03T13:24:31.190Z,5.03
2023-02-03T13:30:12.187Z,9.17
2023-02-03T13:35:49.791Z,7.23
2023-02-03T13:41:07.970Z,9.23
2023-02-03T13:46:48.194Z,8.80
2023-02-03T13:52:29.563Z,8.90
2023-02-03T14:05:28.367Z,8.53
2023-02-03T14:29:58.204Z,17.17
2023-02-03T14:41:57.106Z,13.73
2023-02-03T14:48:03.215Z,23.70
2023-02-03T15:06:26.458Z,19.10
2023-02-03T15:12:03.359Z,11.03
2023-02-03T15:18:08.877Z,16.50
2023-02-03T15:23:58.530Z,17.67
2023-02-03T15:29:22.757Z,17.90
2023-02-03T15:35:10.360Z,15.60
2023-02-03T15:40:52.323Z,18.17
2023-02-03T15:52:04.069Z,24.30
2023-02-03T15:57:17.969Z,17.60
2023-02-03T16:02:31.881Z,21.97
2023-02-03T16:07:47.337Z,20.43
2023-02-03T16:12:50.330Z,13.60
2023-02-03T16:18:01.992Z,20.90
2023-02-03T16:23:18.320Z,20.77
2023-02-03T16:28:40.712Z,22.47
2023-02-03T16:34:04.191Z,18.97
2023-02-03T16:39:30.836Z,14.40
2023-02-03T16:44:52.141Z,17.47
2023-02-03T16:50:12.576Z,19.37
2023-02-03T16:55:16.747Z,15.27
2023-02-03T17:00:21.969Z,12.07
2023-02-03T17:05:24.662Z,19.57
2023-02-03T17:10:28.630Z,16.10
2023-02-03T17:15:31.636Z,19.17
2023-02-03T17:20:34.512Z,13.90
2023-02-03T17:25:40.458Z,18.23
2023-02-03T17:30:43.483Z,16.77
2023-02-03T17:35:46.492Z,18.13
2023-02-03T17:56:54.934Z,18.03
2023-02-03T18:01:57.797Z,19.83
2023-02-03T18:07:00.598Z,18.23
2023-02-03T18:12:05.074Z,18.70
2023-02-03T18:17:09.196Z,15.57
2023-02-03T18:22:11.871Z,18.57
2023-02-03T18:27:17.155Z,16.00
2023-02-03T18:32:20.573Z,20.13
2023-02-03T18:37:23.558Z,16.37
2023-02-03T18:42:27.709Z,21.50
2023-02-03T18:47:30.446Z,16.90
2023-02-03T18:52:33.073Z,16.60
2023-02-03T18:57:37.127Z,14.27
2023-02-03T19:02:39.781Z,13.20
2023-02-03T19:07:42.461Z,15.13
2023-02-03T19:12:46.548Z,21.17
2023-02-03T19:17:49.248Z,19.43
2023-02-03T19:22:53.767Z,16.20
2023-02-03T19:27:57.796Z,14.83
2023-02-03T19:33:00.749Z,18.47
2023-02-03T19:38:03.519Z,17.87
2023-02-03T19:43:07.482Z,16.10
2023-02-03T19:48:10.149Z,22.87
2023-02-03T19:53:13.602Z,18.67
2023-02-03T19:58:17.706Z,21.90
2023-02-03T20:03:20.616Z,23.73
2023-02-03T20:08:23.290Z,20.47
2023-02-03T20:13:27.316Z,24.27
2023-02-03T20:18:29.992Z,18.40
2023-02-03T20:23:33.322Z,17.20
2023-02-03T20:28:37.283Z,15.93
2023-02-03T20:33:40.183Z,14.93
2023-02-03T20:38:42.846Z,19.47
2023-02-03T20:43:47.099Z,20.17
2023-02-03T20:48:50.238Z,18.37
2023-02-03T20:53:52.901Z,27.33
2023-02-03T20:58:56.865Z,24.43
2023-02-03T21:04:17.088Z,18.53
2023-02-03T21:09:38.425Z,22.53
2023-02-03T21:40:42.080Z,23.37
2023-02-03T21:47:14.482Z,19.27
2023-02-03T21:58:30.660Z,22.90
2023-02-03T22:03:37.832Z,21.20
2023-02-03T22:08:42.442Z,22.00
2023-02-03T22:13:47.383Z,21.00
2023-02-03T22:18:50.934Z,23.03
2023-02-03T22:23:53.738Z,17.97
2023-02-03T22:28:57.737Z,19.47
2023-02-03T22:34:00.427Z,22.67
2023-02-03T22:39:03.115Z,19.70
2023-02-03T22:44:07.368Z,19.00
2023-02-03T22:49:33.047Z,12.83
2023-02-03T22:54:39.637Z,12.13
2023-02-03T22:59:47.754Z,14.40
2023-02-03T23:04:57.494Z,11.10
2023-02-03T23:10:05.583Z,14.93
2023-02-03T23:15:13.012Z,19.43
2023-02-03T23:20:20.214Z,12.77
2023-02-03T23:25:32.851Z,12.33
2023-02-03T23:30:45.726Z,14.67
2023-02-03T23:35:50.169Z,11.37
2023-02-03T23:40:56.294Z,12.07
2023-02-03T23:46:00.668Z,13.00
2023-02-03T23:51:03.451Z,11.93
2023-02-03T23:56:06.526Z,15.73
